sensor_id;sensor_type;location;lat;lon;timestamp;P1;durP1;ratioP1;P2;durP2;ratioP2
1308;SDS011;647;48.840;9.314;2022-07-18T00:00:42;59.87;;;3.83;;
1308;SDS011;647;48.840;9.314;2022-07-18T00:03:09;60.57;;;4.37;;
1308;SDS011;647;48.840;9.314;2022-07-18T00:05:36;60.00;;;3.77;;
1308;SDS011;647;48.840;9.314;2022-07-18T00:08:03;60.57;;;4.27;;
1308;SDS011;647;48.840;9.314;2022-07-18T00:10:30;59.40;;;3.90;;
1308;SDS011;647;48.840;9.314;2022-07-18T00:12:59;59.40;;;4.00;;
1308;SDS011;647;48.840;9.314;2022-07-18T00:15:26;60.10;;;3.50;;
1308;SDS011;647;48.840;9.314;2022-07-18T00:17:53;59.80;;;4.50;;
1308;SDS011;647;48.840;9.314;2022-07-18T00:20:20;60.70;;;4.50;;
1308;SDS011;647;48.840;9.314;2022-07-18T00:22:47;60.17;;;4.30;;
1308;SDS011;647;48.840;9.314;2022-07-18T00:25:14;61.40;;;3.40;;
1308;SDS011;647;48.840;9.314;2022-07-18T00:27:42;60.67;;;4.67;;
1308;SDS011;647;48.840;9.314;2022-07-18T00:30:11;59.80;;;4.10;;
1308;SDS011;647;48.840;9.314;2022-07-18T00:32:38;61.73;;;5.37;;
1308;SDS011;647;48.840;9.314;2022-07-18T00:35:05;61.47;;;4.03;;
1308;SDS011;647;48.840;9.314;2022-07-18T00:37:32;65.73;;;4.20;;
1308;SDS011;647;48.840;9.314;2022-07-18T00:40:00;59.60;;;3.73;;
1308;SDS011;647;48.840;9.314;2022-07-18T00:42:27;60.10;;;4.17;;
1308;SDS011;647;48.840;9.314;2022-07-18T00:44:55;59.67;;;3.77;;
1308;SDS011;647;48.840;9.314;2022-07-18T00:47:23;60.33;;;4.70;;
1308;SDS011;647;48.840;9.314;2022-07-18T00:49:50;59.73;;;4.13;;
1308;SDS011;647;48.840;9.314;2022-07-18T00:52:18;60.00;;;4.47;;
1308;SDS011;647;48.840;9.314;2022-07-18T00:54:45;59.47;;;3.90;;
1308;SDS011;647;48.840;9.314;2022-07-18T00:57:12;61.27;;;4.47;;
1308;SDS011;647;48.840;9.314;2022-07-18T00:59:40;59.43;;;3.77;;
1308;SDS011;647;48.840;9.314;2022-07-18T01:02:27;59.60;;;3.50;;
1308;SDS011;647;48.840;9.314;2022-07-18T01:04:54;61.03;;;4.10;;
1308;SDS011;647;48.840;9.314;2022-07-18T01:07:21;60.20;;;3.97;;
1308;SDS011;647;48.840;9.314;2022-07-18T01:09:48;61.47;;;4.40;;
1308;SDS011;647;48.840;9.314;2022-07-18T01:12:15;60.47;;;4.20;;
1308;SDS011;647;48.840;9.314;2022-07-18T01:14:42;60.30;;;4.07;;
1308;SDS011;647;48.840;9.314;2022-07-18T01:17:13;59.50;;;3.77;;
1308;SDS011;647;48.840;9.314;2022-07-18T01:19:42;60.37;;;4.40;;
1308;SDS011;647;48.840;9.314;2022-07-18T01:22:11;60.57;;;3.90;;
1308;SDS011;647;48.840;9.314;2022-07-18T01:24:39;59.40;;;3.90;;
1308;SDS011;647;48.840;9.314;2022-07-18T01:27:07;62.50;;;4.30;;
1308;SDS011;647;48.840;9.314;2022-07-18T01:29:35;60.50;;;4.63;;
1308;SDS011;647;48.840;9.314;2022-07-18T01:32:06;59.00;;;3.90;;
1308;SDS011;647;48.840;9.314;2022-07-18T01:34:33;59.97;;;3.87;;
1308;SDS011;647;48.840;9.314;2022-07-18T01:37:01;60.87;;;4.50;;
1308;SDS011;647;48.840;9.314;2022-07-18T01:39:30;59.47;;;3.50;;
1308;SDS011;647;48.840;9.314;2022-07-18T01:41:57;78.57;;;4.73;;
1308;SDS011;647;48.840;9.314;2022-07-18T01:44:25;59.97;;;4.17;;
1308;SDS011;647;48.840;9.314;2022-07-18T01:46:53;59.47;;;4.10;;
1308;SDS011;647;48.840;9.314;2022-07-18T01:49:20;60.20;;;4.20;;
1308;SDS011;647;48.840;9.314;2022-07-18T01:51:48;60.37;;;4.10;;
1308;SDS011;647;48.840;9.314;2022-07-18T01:54:15;61.10;;;3.80;;
1308;SDS011;647;48.840;9.314;2022-07-18T01:56:43;60.67;;;4.00;;
1308;SDS011;647;48.840;9.314;2022-07-18T01:59:11;61.10;;;4.37;;
1308;SDS011;647;48.840;9.314;2022-07-18T02:01:38;59.80;;;3.93;;
1308;SDS011;647;48.840;9.314;2022-07-18T02:04:05;60.87;;;4.10;;
1308;SDS011;647;48.840;9.314;2022-07-18T02:06:32;61.37;;;4.20;;
1308;SDS011;647;48.840;9.314;2022-07-18T02:09:00;60.07;;;4.10;;
1308;SDS011;647;48.840;9.314;2022-07-18T02:11:27;60.73;;;4.03;;
1308;SDS011;647;48.840;9.314;2022-07-18T02:13:55;60.77;;;3.70;;
1308;SDS011;647;48.840;9.314;2022-07-18T02:16:22;60.13;;;4.30;;
1308;SDS011;647;48.840;9.314;2022-07-18T02:18:49;60.13;;;3.90;;
1308;SDS011;647;48.840;9.314;2022-07-18T02:21:17;60.20;;;3.90;;
1308;SDS011;647;48.840;9.314;2022-07-18T02:23:44;59.90;;;4.20;;
1308;SDS011;647;48.840;9.314;2022-07-18T02:26:11;60.30;;;3.87;;
1308;SDS011;647;48.840;9.314;2022-07-18T02:28:38;59.30;;;3.93;;
1308;SDS011;647;48.840;9.314;2022-07-18T02:31:07;60.10;;;3.90;;
1308;SDS011;647;48.840;9.314;2022-07-18T02:33:34;59.30;;;3.30;;
1308;SDS011;647;48.840;9.314;2022-07-18T02:36:02;60.37;;;4.20;;
1308;SDS011;647;48.840;9.314;2022-07-18T02:38:30;60.10;;;3.60;;
1308;SDS011;647;48.840;9.314;2022-07-18T02:40:57;59.10;;;3.40;;
1308;SDS011;647;48.840;9.314;2022-07-18T02:43:24;60.57;;;3.70;;
1308;SDS011;647;48.840;9.314;2022-07-18T02:45:52;59.50;;;3.90;;
1308;SDS011;647;48.840;9.314;2022-07-18T02:48:20;59.47;;;3.87;;
1308;SDS011;647;48.840;9.314;2022-07-18T02:50:48;59.50;;;3.60;;
1308;SDS011;647;48.840;9.314;2022-07-18T02:53:15;60.60;;;4.20;;
1308;SDS011;647;48.840;9.314;2022-07-18T02:55:44;60.47;;;4.20;;
1308;SDS011;647;48.840;9.314;2022-07-18T02:58:11;59.80;;;3.93;;
1308;SDS011;647;48.840;9.314;2022-07-18T03:00:38;59.87;;;3.60;;
1308;SDS011;647;48.840;9.314;2022-07-18T03:03:05;59.70;;;3.50;;
1308;SDS011;647;48.840;9.314;2022-07-18T03:05:34;59.83;;;3.93;;
1308;SDS011;647;48.840;9.314;2022-07-18T03:08:01;59.57;;;3.47;;
1308;SDS011;647;48.840;9.314;2022-07-18T03:10:28;60.37;;;3.57;;
1308;SDS011;647;48.840;9.314;2022-07-18T03:12:55;60.20;;;3.90;;
1308;SDS011;647;48.840;9.314;2022-07-18T03:15:22;59.70;;;4.00;;
1308;SDS011;647;48.840;9.314;2022-07-18T03:17:49;60.10;;;4.00;;
1308;SDS011;647;48.840;9.314;2022-07-18T03:20:16;59.70;;;3.77;;
1308;SDS011;647;48.840;9.314;2022-07-18T03:22:45;60.00;;;3.60;;
1308;SDS011;647;48.840;9.314;2022-07-18T03:25:12;61.67;;;4.27;;
1308;SDS011;647;48.840;9.314;2022-07-18T03:27:39;59.60;;;3.57;;
1308;SDS011;647;48.840;9.314;2022-07-18T03:30:07;60.00;;;3.60;;
1308;SDS011;647;48.840;9.314;2022-07-18T03:32:34;59.30;;;3.80;;
1308;SDS011;647;48.840;9.314;2022-07-18T03:35:01;60.50;;;3.77;;
1308;SDS011;647;48.840;9.314;2022-07-18T03:37:28;60.13;;;3.90;;
1308;SDS011;647;48.840;9.314;2022-07-18T03:39:57;59.80;;;3.70;;
1308;SDS011;647;48.840;9.314;2022-07-18T03:42:24;60.20;;;4.40;;
1308;SDS011;647;48.840;9.314;2022-07-18T03:44:51;61.07;;;4.27;;
1308;SDS011;647;48.840;9.314;2022-07-18T03:47:18;59.97;;;3.97;;
1308;SDS011;647;48.840;9.314;2022-07-18T03:49:45;60.83;;;3.80;;
1308;SDS011;647;48.840;9.314;2022-07-18T03:52:12;60.60;;;4.17;;
1308;SDS011;647;48.840;9.314;2022-07-18T03:54:39;60.07;;;3.83;;
1308;SDS011;647;48.840;9.314;2022-07-18T03:57:08;64.30;;;3.83;;
1308;SDS011;647;48.840;9.314;2022-07-18T03:59:35;59.97;;;4.20;;
1308;SDS011;647;48.840;9.314;2022-07-18T04:02:02;61.70;;;4.43;;
1308;SDS011;647;48.840;9.314;2022-07-18T04:04:29;59.30;;;3.70;;
1308;SDS011;647;48.840;9.314;2022-07-18T04:06:56;60.30;;;5.30;;
1308;SDS011;647;48.840;9.314;2022-07-18T04:09:24;60.17;;;4.33;;
1308;SDS011;647;48.840;9.314;2022-07-18T04:11:51;59.67;;;3.87;;
1308;SDS011;647;48.840;9.314;2022-07-18T04:14:19;60.10;;;4.20;;
1308;SDS011;647;48.840;9.314;2022-07-18T04:16:47;59.87;;;4.17;;
1308;SDS011;647;48.840;9.314;2022-07-18T04:19:14;60.70;;;3.63;;
1308;SDS011;647;48.840;9.314;2022-07-18T04:21:42;60.73;;;4.70;;
1308;SDS011;647;48.840;9.314;2022-07-18T04:24:09;60.80;;;4.20;;
1308;SDS011;647;48.840;9.314;2022-07-18T04:26:36;61.20;;;4.13;;
1308;SDS011;647;48.840;9.314;2022-07-18T04:29:04;63.80;;;4.30;;
1308;SDS011;647;48.840;9.314;2022-07-18T04:31:32;60.20;;;3.67;;
1308;SDS011;647;48.840;9.314;2022-07-18T04:33:59;60.17;;;3.97;;
1308;SDS011;647;48.840;9.314;2022-07-18T04:36:26;60.90;;;4.00;;
1308;SDS011;647;48.840;9.314;2022-07-18T04:38:54;59.90;;;3.70;;
1308;SDS011;647;48.840;9.314;2022-07-18T04:41:22;59.50;;;3.70;;
1308;SDS011;647;48.840;9.314;2022-07-18T04:43:50;59.87;;;4.23;;
1308;SDS011;647;48.840;9.314;2022-07-18T04:46:17;60.53;;;3.57;;
1308;SDS011;647;48.840;9.314;2022-07-18T04:48:46;60.00;;;4.17;;
1308;SDS011;647;48.840;9.314;2022-07-18T04:51:13;61.50;;;4.07;;
1308;SDS011;647;48.840;9.314;2022-07-18T04:53:40;60.50;;;3.70;;
1308;SDS011;647;48.840;9.314;2022-07-18T04:56:07;59.90;;;3.67;;
1308;SDS011;647;48.840;9.314;2022-07-18T04:58:34;60.80;;;3.40;;
1308;SDS011;647;48.840;9.314;2022-07-18T05:01:01;61.63;;;4.13;;
1308;SDS011;647;48.840;9.314;2022-07-18T05:03:29;60.77;;;4.30;;
1308;SDS011;647;48.840;9.314;2022-07-18T05:05:57;58.93;;;3.63;;
1308;SDS011;647;48.840;9.314;2022-07-18T05:08:24;62.70;;;4.30;;
1308;SDS011;647;48.840;9.314;2022-07-18T05:10:51;59.67;;;3.40;;
1308;SDS011;647;48.840;9.314;2022-07-18T05:13:18;60.33;;;3.50;;
1308;SDS011;647;48.840;9.314;2022-07-18T05:15:46;59.57;;;3.50;;
1308;SDS011;647;48.840;9.314;2022-07-18T05:18:13;63.73;;;4.20;;
1308;SDS011;647;48.840;9.314;2022-07-18T05:20:40;60.10;;;3.90;;
1308;SDS011;647;48.840;9.314;2022-07-18T05:23:09;59.50;;;3.70;;
1308;SDS011;647;48.840;9.314;2022-07-18T05:25:36;58.63;;;3.30;;
1308;SDS011;647;48.840;9.314;2022-07-18T05:28:03;60.10;;;4.00;;
1308;SDS011;647;48.840;9.314;2022-07-18T05:30:30;60.37;;;4.03;;
1308;SDS011;647;48.840;9.314;2022-07-18T05:32:57;59.70;;;3.60;;
1308;SDS011;647;48.840;9.314;2022-07-18T05:35:25;59.10;;;3.40;;
1308;SDS011;647;48.840;9.314;2022-07-18T05:37:52;59.77;;;3.97;;
1308;SDS011;647;48.840;9.314;2022-07-18T05:40:20;59.37;;;3.50;;
1308;SDS011;647;48.840;9.314;2022-07-18T05:42:47;59.57;;;3.40;;
1308;SDS011;647;48.840;9.314;2022-07-18T05:45:15;59.80;;;3.67;;
1308;SDS011;647;48.840;9.314;2022-07-18T05:47:42;59.77;;;3.70;;
1308;SDS011;647;48.840;9.314;2022-07-18T05:50:10;59.77;;;3.80;;
1308;SDS011;647;48.840;9.314;2022-07-18T05:52:37;60.57;;;3.83;;
1308;SDS011;647;48.840;9.314;2022-07-18T05:55:05;59.50;;;3.77;;
1308;SDS011;647;48.840;9.314;2022-07-18T05:57:33;62.20;;;3.17;;
1308;SDS011;647;48.840;9.314;2022-07-18T06:00:01;59.97;;;3.60;;
1308;SDS011;647;48.840;9.314;2022-07-18T06:02:28;59.33;;;3.30;;
1308;SDS011;647;48.840;9.314;2022-07-18T06:04:55;59.40;;;3.53;;
1308;SDS011;647;48.840;9.314;2022-07-18T06:07:23;60.70;;;3.20;;
1308;SDS011;647;48.840;9.314;2022-07-18T06:09:50;59.00;;;3.10;;
1308;SDS011;647;48.840;9.314;2022-07-18T06:12:17;58.80;;;3.30;;
1308;SDS011;647;48.840;9.314;2022-07-18T06:14:45;59.87;;;3.67;;
1308;SDS011;647;48.840;9.314;2022-07-18T06:17:12;62.40;;;3.50;;
1308;SDS011;647;48.840;9.314;2022-07-18T06:19:40;58.70;;;3.03;;
1308;SDS011;647;48.840;9.314;2022-07-18T06:22:07;59.50;;;3.43;;
1308;SDS011;647;48.840;9.314;2022-07-18T06:24:34;59.40;;;3.47;;
1308;SDS011;647;48.840;9.314;2022-07-18T06:27:01;59.80;;;3.60;;
1308;SDS011;647;48.840;9.314;2022-07-18T06:29:28;58.63;;;3.27;;
1308;SDS011;647;48.840;9.314;2022-07-18T06:31:57;59.00;;;3.00;;
1308;SDS011;647;48.840;9.314;2022-07-18T06:34:24;59.70;;;3.50;;
1308;SDS011;647;48.840;9.314;2022-07-18T06:36:51;58.90;;;3.37;;
1308;SDS011;647;48.840;9.314;2022-07-18T06:39:18;59.50;;;3.70;;
1308;SDS011;647;48.840;9.314;2022-07-18T06:41:45;59.60;;;3.30;;
1308;SDS011;647;48.840;9.314;2022-07-18T06:44:12;58.77;;;3.47;;
1308;SDS011;647;48.840;9.314;2022-07-18T06:46:40;59.03;;;3.33;;
1308;SDS011;647;48.840;9.314;2022-07-18T06:49:08;65.03;;;4.20;;
1308;SDS011;647;48.840;9.314;2022-07-18T06:51:35;59.20;;;3.40;;
1308;SDS011;647;48.840;9.314;2022-07-18T06:54:03;59.47;;;3.60;;
1308;SDS011;647;48.840;9.314;2022-07-18T06:56:30;59.60;;;3.57;;
1308;SDS011;647;48.840;9.314;2022-07-18T06:58:57;60.00;;;4.20;;
1308;SDS011;647;48.840;9.314;2022-07-18T07:01:24;59.27;;;3.60;;
1308;SDS011;647;48.840;9.314;2022-07-18T07:03:52;59.80;;;4.20;;
1308;SDS011;647;48.840;9.314;2022-07-18T07:06:20;59.00;;;3.83;;
1308;SDS011;647;48.840;9.314;2022-07-18T07:08:47;59.30;;;3.80;;
1308;SDS011;647;48.840;9.314;2022-07-18T07:11:14;61.00;;;3.83;;
1308;SDS011;647;48.840;9.314;2022-07-18T07:13:41;58.67;;;3.50;;
1308;SDS011;647;48.840;9.314;2022-07-18T07:16:09;59.80;;;3.30;;
1308;SDS011;647;48.840;9.314;2022-07-18T07:18:36;59.50;;;3.50;;
1308;SDS011;647;48.840;9.314;2022-07-18T07:21:03;59.47;;;3.70;;
1308;SDS011;647;48.840;9.314;2022-07-18T07:23:32;59.47;;;3.80;;
1308;SDS011;647;48.840;9.314;2022-07-18T07:25:59;59.20;;;3.40;;
1308;SDS011;647;48.840;9.314;2022-07-18T07:28:26;59.50;;;3.40;;
1308;SDS011;647;48.840;9.314;2022-07-18T07:30:53;59.20;;;3.37;;
1308;SDS011;647;48.840;9.314;2022-07-18T07:33:20;58.70;;;2.93;;
1308;SDS011;647;48.840;9.314;2022-07-18T07:35:47;59.10;;;3.53;;
1308;SDS011;647;48.840;9.314;2022-07-18T07:38:14;59.37;;;3.27;;
1308;SDS011;647;48.840;9.314;2022-07-18T07:40:45;59.67;;;3.47;;
1308;SDS011;647;48.840;9.314;2022-07-18T07:43:13;59.30;;;3.50;;
1308;SDS011;647;48.840;9.314;2022-07-18T07:45:41;59.57;;;3.53;;
1308;SDS011;647;48.840;9.314;2022-07-18T07:48:08;60.60;;;3.20;;
1308;SDS011;647;48.840;9.314;2022-07-18T07:50:36;60.70;;;3.60;;
1308;SDS011;647;48.840;9.314;2022-07-18T07:53:03;58.70;;;2.90;;
1308;SDS011;647;48.840;9.314;2022-07-18T07:55:30;60.87;;;4.00;;
1308;SDS011;647;48.840;9.314;2022-07-18T07:57:59;60.47;;;3.20;;
1308;SDS011;647;48.840;9.314;2022-07-18T08:00:26;58.73;;;3.00;;
1308;SDS011;647;48.840;9.314;2022-07-18T08:02:54;60.77;;;3.50;;
1308;SDS011;647;48.840;9.314;2022-07-18T08:05:22;61.53;;;3.77;;
1308;SDS011;647;48.840;9.314;2022-07-18T08:07:49;60.13;;;3.53;;
1308;SDS011;647;48.840;9.314;2022-07-18T08:10:16;59.97;;;3.20;;
1308;SDS011;647;48.840;9.314;2022-07-18T08:12:43;58.17;;;3.20;;
1308;SDS011;647;48.840;9.314;2022-07-18T08:15:12;58.30;;;2.90;;
1308;SDS011;647;48.840;9.314;2022-07-18T08:17:39;60.13;;;3.83;;
1308;SDS011;647;48.840;9.314;2022-07-18T08:20:07;58.13;;;3.10;;
1308;SDS011;647;48.840;9.314;2022-07-18T08:22:34;60.73;;;4.30;;
1308;SDS011;647;48.840;9.314;2022-07-18T08:25:01;58.97;;;3.57;;
1308;SDS011;647;48.840;9.314;2022-07-18T08:27:29;59.10;;;3.40;;
1308;SDS011;647;48.840;9.314;2022-07-18T08:29:56;59.40;;;3.50;;
1308;SDS011;647;48.840;9.314;2022-07-18T08:32:24;59.20;;;3.20;;
1308;SDS011;647;48.840;9.314;2022-07-18T08:34:51;58.60;;;3.53;;
1308;SDS011;647;48.840;9.314;2022-07-18T08:37:19;59.20;;;3.50;;
1308;SDS011;647;48.840;9.314;2022-07-18T08:39:46;59.17;;;3.40;;
1308;SDS011;647;48.840;9.314;2022-07-18T08:42:14;58.90;;;3.17;;
1308;SDS011;647;48.840;9.314;2022-07-18T08:44:42;58.63;;;3.00;;
1308;SDS011;647;48.840;9.314;2022-07-18T08:47:10;60.20;;;3.50;;
1308;SDS011;647;48.840;9.314;2022-07-18T08:49:39;59.07;;;2.90;;
1308;SDS011;647;48.840;9.314;2022-07-18T08:52:07;60.40;;;3.07;;
1308;SDS011;647;48.840;9.314;2022-07-18T08:54:35;58.37;;;3.03;;
1308;SDS011;647;48.840;9.314;2022-07-18T08:57:02;59.20;;;3.10;;
1308;SDS011;647;48.840;9.314;2022-07-18T08:59:29;58.37;;;2.83;;
1308;SDS011;647;48.840;9.314;2022-07-18T09:01:56;58.40;;;3.13;;
1308;SDS011;647;48.840;9.314;2022-07-18T09:04:36;58.67;;;3.10;;
1308;SDS011;647;48.840;9.314;2022-07-18T09:07:05;61.07;;;3.43;;
1308;SDS011;647;48.840;9.314;2022-07-18T09:09:33;60.37;;;3.10;;
1308;SDS011;647;48.840;9.314;2022-07-18T09:12:01;59.07;;;3.10;;
1308;SDS011;647;48.840;9.314;2022-07-18T09:14:29;58.43;;;2.87;;
1308;SDS011;647;48.840;9.314;2022-07-18T09:17:00;58.50;;;3.00;;
1308;SDS011;647;48.840;9.314;2022-07-18T09:19:28;58.80;;;3.07;;
1308;SDS011;647;48.840;9.314;2022-07-18T09:21:58;59.27;;;3.53;;
1308;SDS011;647;48.840;9.314;2022-07-18T09:24:50;58.57;;;3.00;;
1308;SDS011;647;48.840;9.314;2022-07-18T09:30:10;59.20;;;3.27;;
1308;SDS011;647;48.840;9.314;2022-07-18T09:32:38;58.70;;;2.80;;
1308;SDS011;647;48.840;9.314;2022-07-18T09:35:06;59.13;;;2.97;;
1308;SDS011;647;48.840;9.314;2022-07-18T09:37:33;58.37;;;2.60;;
1308;SDS011;647;48.840;9.314;2022-07-18T09:40:17;58.60;;;2.60;;
1308;SDS011;647;48.840;9.314;2022-07-18T09:42:48;57.97;;;2.83;;
1308;SDS011;647;48.840;9.314;2022-07-18T09:45:15;58.90;;;3.00;;
1308;SDS011;647;48.840;9.314;2022-07-18T09:47:48;58.00;;;2.83;;
1308;SDS011;647;48.840;9.314;2022-07-18T09:50:19;59.10;;;3.10;;
1308;SDS011;647;48.840;9.314;2022-07-18T09:52:54;59.17;;;3.10;;
1308;SDS011;647;48.840;9.314;2022-07-18T09:55:23;57.97;;;2.67;;
1308;SDS011;647;48.840;9.314;2022-07-18T09:57:56;58.40;;;2.90;;
1308;SDS011;647;48.840;9.314;2022-07-18T10:00:23;58.03;;;2.90;;
1308;SDS011;647;48.840;9.314;2022-07-18T10:02:51;58.30;;;3.00;;
1308;SDS011;647;48.840;9.314;2022-07-18T10:05:18;69.33;;;3.00;;
1308;SDS011;647;48.840;9.314;2022-07-18T10:07:45;58.00;;;2.50;;
1308;SDS011;647;48.840;9.314;2022-07-18T10:10:13;58.17;;;2.80;;
1308;SDS011;647;48.840;9.314;2022-07-18T10:12:42;57.97;;;2.57;;
1308;SDS011;647;48.840;9.314;2022-07-18T10:15:09;58.03;;;2.60;;
1308;SDS011;647;48.840;9.314;2022-07-18T10:17:37;58.10;;;2.50;;
1308;SDS011;647;48.840;9.314;2022-07-18T10:20:04;58.70;;;2.70;;
1308;SDS011;647;48.840;9.314;2022-07-18T10:22:34;58.07;;;2.77;;
1308;SDS011;647;48.840;9.314;2022-07-18T10:25:03;58.00;;;2.60;;
1308;SDS011;647;48.840;9.314;2022-07-18T10:30:14;58.80;;;2.90;;
1308;SDS011;647;48.840;9.314;2022-07-18T10:32:41;58.17;;;2.80;;
1308;SDS011;647;48.840;9.314;2022-07-18T10:35:09;58.30;;;2.70;;
1308;SDS011;647;48.840;9.314;2022-07-18T10:37:37;57.30;;;2.53;;
1308;SDS011;647;48.840;9.314;2022-07-18T10:45:43;56.80;;;2.50;;
1308;SDS011;647;48.840;9.314;2022-07-18T10:50:59;57.27;;;2.37;;
1308;SDS011;647;48.840;9.314;2022-07-18T10:56:09;57.37;;;2.60;;
1308;SDS011;647;48.840;9.314;2022-07-18T10:58:38;57.00;;;2.63;;
1308;SDS011;647;48.840;9.314;2022-07-18T11:01:07;57.10;;;2.40;;
1308;SDS011;647;48.840;9.314;2022-07-18T11:03:38;57.07;;;2.30;;
1308;SDS011;647;48.840;9.314;2022-07-18T11:06:05;56.57;;;2.73;;
1308;SDS011;647;48.840;9.314;2022-07-18T11:08:32;57.20;;;2.50;;
1308;SDS011;647;48.840;9.314;2022-07-18T11:11:03;56.90;;;2.27;;
1308;SDS011;647;48.840;9.314;2022-07-18T11:13:30;56.60;;;2.70;;
1308;SDS011;647;48.840;9.314;2022-07-18T11:15:58;56.93;;;2.60;;
1308;SDS011;647;48.840;9.314;2022-07-18T11:18:28;57.30;;;2.90;;
1308;SDS011;647;48.840;9.314;2022-07-18T11:20:57;57.00;;;2.60;;
1308;SDS011;647;48.840;9.314;2022-07-18T11:23:24;56.97;;;3.03;;
1308;SDS011;647;48.840;9.314;2022-07-18T11:25:52;57.00;;;2.67;;
1308;SDS011;647;48.840;9.314;2022-07-18T11:28:21;56.57;;;2.30;;
1308;SDS011;647;48.840;9.314;2022-07-18T11:30:58;58.30;;;2.60;;
1308;SDS011;647;48.840;9.314;2022-07-18T11:33:27;56.77;;;2.50;;
1308;SDS011;647;48.840;9.314;2022-07-18T11:36:02;56.17;;;2.67;;
1308;SDS011;647;48.840;9.314;2022-07-18T11:38:30;56.90;;;2.60;;
1308;SDS011;647;48.840;9.314;2022-07-18T11:40:57;55.73;;;2.10;;
1308;SDS011;647;48.840;9.314;2022-07-18T11:43:24;56.00;;;2.33;;
1308;SDS011;647;48.840;9.314;2022-07-18T11:45:59;56.33;;;2.30;;
1308;SDS011;647;48.840;9.314;2022-07-18T11:48:26;56.07;;;2.30;;
1308;SDS011;647;48.840;9.314;2022-07-18T11:50:53;56.60;;;2.40;;
1308;SDS011;647;48.840;9.314;2022-07-18T11:53:22;56.60;;;2.73;;
1308;SDS011;647;48.840;9.314;2022-07-18T11:55:49;57.87;;;2.33;;
1308;SDS011;647;48.840;9.314;2022-07-18T11:58:17;55.90;;;2.73;;
1308;SDS011;647;48.840;9.314;2022-07-18T12:00:45;57.10;;;2.60;;
1308;SDS011;647;48.840;9.314;2022-07-18T12:03:12;56.07;;;2.10;;
1308;SDS011;647;48.840;9.314;2022-07-18T12:05:41;56.33;;;2.20;;
1308;SDS011;647;48.840;9.314;2022-07-18T12:08:25;55.73;;;2.40;;
1308;SDS011;647;48.840;9.314;2022-07-18T12:11:05;57.27;;;2.53;;
1308;SDS011;647;48.840;9.314;2022-07-18T12:13:40;56.77;;;2.57;;
1308;SDS011;647;48.840;9.314;2022-07-18T12:16:07;57.77;;;2.50;;
1308;SDS011;647;48.840;9.314;2022-07-18T12:18:34;56.47;;;2.00;;
1308;SDS011;647;48.840;9.314;2022-07-18T12:21:07;56.63;;;2.40;;
1308;SDS011;647;48.840;9.314;2022-07-18T12:23:36;55.97;;;1.90;;
1308;SDS011;647;48.840;9.314;2022-07-18T12:26:03;55.57;;;2.37;;
1308;SDS011;647;48.840;9.314;2022-07-18T12:28:30;55.50;;;2.50;;
1308;SDS011;647;48.840;9.314;2022-07-18T12:30:57;56.57;;;2.00;;
1308;SDS011;647;48.840;9.314;2022-07-18T12:33:25;56.10;;;2.20;;
1308;SDS011;647;48.840;9.314;2022-07-18T12:35:55;56.77;;;2.40;;
1308;SDS011;647;48.840;9.314;2022-07-18T12:38:23;56.63;;;2.27;;
1308;SDS011;647;48.840;9.314;2022-07-18T12:40:52;55.57;;;2.00;;
1308;SDS011;647;48.840;9.314;2022-07-18T12:43:22;55.93;;;2.13;;
1308;SDS011;647;48.840;9.314;2022-07-18T12:45:50;56.60;;;2.30;;
1308;SDS011;647;48.840;9.314;2022-07-18T12:48:17;56.07;;;2.17;;
1308;SDS011;647;48.840;9.314;2022-07-18T12:50:44;56.37;;;2.27;;
1308;SDS011;647;48.840;9.314;2022-07-18T12:53:12;56.87;;;2.57;;
1308;SDS011;647;48.840;9.314;2022-07-18T12:55:39;56.60;;;2.23;;
1308;SDS011;647;48.840;9.314;2022-07-18T12:58:07;56.60;;;1.93;;
1308;SDS011;647;48.840;9.314;2022-07-18T13:00:34;57.97;;;2.07;;
1308;SDS011;647;48.840;9.314;2022-07-18T13:03:02;56.10;;;2.23;;
1308;SDS011;647;48.840;9.314;2022-07-18T13:05:29;57.30;;;2.60;;
1308;SDS011;647;48.840;9.314;2022-07-18T13:07:56;56.47;;;2.17;;
1308;SDS011;647;48.840;9.314;2022-07-18T13:10:24;56.30;;;2.73;;
1308;SDS011;647;48.840;9.314;2022-07-18T13:12:51;56.30;;;2.30;;
1308;SDS011;647;48.840;9.314;2022-07-18T13:15:19;56.50;;;2.43;;
1308;SDS011;647;48.840;9.314;2022-07-18T13:17:47;56.17;;;2.20;;
1308;SDS011;647;48.840;9.314;2022-07-18T13:20:14;56.50;;;2.40;;
1308;SDS011;647;48.840;9.314;2022-07-18T13:22:41;56.50;;;2.23;;
1308;SDS011;647;48.840;9.314;2022-07-18T13:25:09;56.00;;;2.27;;
1308;SDS011;647;48.840;9.314;2022-07-18T13:27:36;57.50;;;2.40;;
1308;SDS011;647;48.840;9.314;2022-07-18T13:30:05;55.57;;;2.60;;
1308;SDS011;647;48.840;9.314;2022-07-18T13:32:35;56.97;;;2.83;;
1308;SDS011;647;48.840;9.314;2022-07-18T13:35:02;56.87;;;2.53;;
1308;SDS011;647;48.840;9.314;2022-07-18T13:37:30;56.77;;;2.40;;
1308;SDS011;647;48.840;9.314;2022-07-18T13:39:57;55.43;;;2.10;;
1308;SDS011;647;48.840;9.314;2022-07-18T13:42:24;56.63;;;2.83;;
1308;SDS011;647;48.840;9.314;2022-07-18T13:44:51;56.10;;;2.43;;
1308;SDS011;647;48.840;9.314;2022-07-18T13:47:19;56.83;;;2.30;;
1308;SDS011;647;48.840;9.314;2022-07-18T13:49:47;55.57;;;2.10;;
1308;SDS011;647;48.840;9.314;2022-07-18T13:52:14;56.57;;;2.03;;
1308;SDS011;647;48.840;9.314;2022-07-18T13:54:41;56.67;;;2.30;;
1308;SDS011;647;48.840;9.314;2022-07-18T13:57:09;55.57;;;2.13;;
1308;SDS011;647;48.840;9.314;2022-07-18T13:59:36;56.40;;;2.20;;
1308;SDS011;647;48.840;9.314;2022-07-18T14:02:03;55.80;;;2.40;;
1308;SDS011;647;48.840;9.314;2022-07-18T14:04:30;56.47;;;2.53;;
1308;SDS011;647;48.840;9.314;2022-07-18T14:06:59;57.43;;;2.47;;
1308;SDS011;647;48.840;9.314;2022-07-18T14:09:26;56.27;;;2.20;;
1308;SDS011;647;48.840;9.314;2022-07-18T14:11:53;56.27;;;2.20;;
1308;SDS011;647;48.840;9.314;2022-07-18T14:14:21;56.50;;;2.60;;
1308;SDS011;647;48.840;9.314;2022-07-18T14:16:48;56.37;;;2.47;;
1308;SDS011;647;48.840;9.314;2022-07-18T14:19:16;56.47;;;2.17;;
1308;SDS011;647;48.840;9.314;2022-07-18T14:21:44;56.20;;;2.30;;
1308;SDS011;647;48.840;9.314;2022-07-18T14:24:13;56.77;;;2.40;;
1308;SDS011;647;48.840;9.314;2022-07-18T14:26:40;56.20;;;2.33;;
1308;SDS011;647;48.840;9.314;2022-07-18T14:29:07;56.17;;;2.33;;
1308;SDS011;647;48.840;9.314;2022-07-18T14:31:34;56.37;;;2.20;;
1308;SDS011;647;48.840;9.314;2022-07-18T14:34:02;55.33;;;2.30;;
1308;SDS011;647;48.840;9.314;2022-07-18T14:36:29;55.97;;;2.20;;
1308;SDS011;647;48.840;9.314;2022-07-18T14:38:56;57.07;;;2.20;;
1308;SDS011;647;48.840;9.314;2022-07-18T14:41:25;55.90;;;2.57;;
1308;SDS011;647;48.840;9.314;2022-07-18T14:43:52;55.77;;;1.90;;
1308;SDS011;647;48.840;9.314;2022-07-18T14:46:19;56.60;;;2.90;;
1308;SDS011;647;48.840;9.314;2022-07-18T14:48:46;56.67;;;2.13;;
1308;SDS011;647;48.840;9.314;2022-07-18T14:51:16;56.07;;;2.33;;
1308;SDS011;647;48.840;9.314;2022-07-18T14:53:43;56.50;;;2.20;;
1308;SDS011;647;48.840;9.314;2022-07-18T14:56:11;56.73;;;2.70;;
1308;SDS011;647;48.840;9.314;2022-07-18T14:58:39;56.80;;;2.83;;
1308;SDS011;647;48.840;9.314;2022-07-18T15:01:06;57.60;;;2.30;;
1308;SDS011;647;48.840;9.314;2022-07-18T15:03:33;56.07;;;2.20;;
1308;SDS011;647;48.840;9.314;2022-07-18T15:06:00;55.77;;;1.90;;
1308;SDS011;647;48.840;9.314;2022-07-18T15:08:28;55.27;;;2.00;;
1308;SDS011;647;48.840;9.314;2022-07-18T15:10:55;55.80;;;1.90;;
1308;SDS011;647;48.840;9.314;2022-07-18T15:13:22;55.80;;;2.30;;
1308;SDS011;647;48.840;9.314;2022-07-18T15:15:51;56.20;;;2.27;;
1308;SDS011;647;48.840;9.314;2022-07-18T15:18:18;55.27;;;2.10;;
1308;SDS011;647;48.840;9.314;2022-07-18T15:20:46;56.80;;;2.50;;
1308;SDS011;647;48.840;9.314;2022-07-18T15:23:13;57.30;;;2.20;;
1308;SDS011;647;48.840;9.314;2022-07-18T15:25:40;57.10;;;2.10;;
1308;SDS011;647;48.840;9.314;2022-07-18T15:28:07;55.77;;;1.93;;
1308;SDS011;647;48.840;9.314;2022-07-18T15:30:35;56.47;;;2.23;;
1308;SDS011;647;48.840;9.314;2022-07-18T15:33:03;56.80;;;2.70;;
1308;SDS011;647;48.840;9.314;2022-07-18T15:35:30;56.97;;;2.40;;